Data Viewer
| City | State | Eastern Time | Source | Temp | DewPt | RH | BP | 5 Min Precip | Wind Speed | Wind Dir | 5 Min Wind Max | 5 Min Wind Max Dir |
|---|---|---|---|---|---|---|---|---|---|---|---|---|
| New Haven | CT | 2026-05-09 04:15 | ASOS | 52 | 46 | 82 | 29.92 | 6 | E | |||
| New Haven | CT | 2026-05-09 11:15 | ASOS | 57 | 48 | 72 | 29.91 | 7 | SE | |||
| New Haven | CT | 2026-05-09 22:05 | ASOS | 52 | 52 | 100 | 29.87 | 3 | ESE | |||
| New Haven | CT | 2026-05-09 20:53 | ASOS | 53 | 52 | 96 | 29.86 | 5 | ESE | |||
| New Haven | CT | 2026-05-09 18:53 | ASOS | 54 | 53 | 97 | 29.88 | 0 | N | |||
| New Haven | CT | 2026-05-09 17:53 | ASOS | 55 | 53 | 93 | 29.88 | 6 | SW | |||
| New Haven | CT | 2026-05-09 16:53 | ASOS | 55 | 53 | 93 | 29.88 | 7 | SSW | |||
| New Haven | CT | 2026-05-09 14:53 | ASOS | 58 | 54 | 87 | 29.88 | 5 | S | |||
| New Haven | CT | 2026-05-09 14:50 | ASOS | 57 | 54 | 88 | 29.88 | 6 | S | |||
| New Haven | CT | 2026-05-09 13:53 | ASOS | 62 | 52 | 70 | 29.86 | 8 | SSE | |||
| New Haven | CT | 2026-05-09 12:53 | ASOS | 60 | 51 | 72 | 29.88 | 6 | SSE | |||
| New Haven | CT | 2026-05-09 11:53 | ASOS | 57 | 49 | 74 | 29.90 | 9 | ESE | |||
| New Haven | CT | 2026-05-09 11:05 | ASOS | 55 | 48 | 77 | 29.91 | 8 | SE | |||
| New Haven | CT | 2026-05-09 23:53 | ASOS | 53 | 52 | 96 | 29.86 | 3 | ESE | |||
| New Haven | CT | 2026-05-09 11:00 | ASOS | 55 | 48 | 77 | 29.91 | 9 | SE | |||
| New Haven | CT | 2026-05-09 10:53 | ASOS | 56 | 49 | 77 | 29.91 | 9 | ESE | |||
| New Haven | CT | 2026-05-09 10:50 | ASOS | 55 | 48 | 77 | 29.91 | 7 | ESE | |||
| New Haven | CT | 2026-05-09 10:40 | ASOS | 55 | 48 | 77 | 29.90 | 9 | ESE | |||
| New Haven | CT | 2026-05-09 10:25 | ASOS | 55 | 48 | 77 | 29.91 | 10 | E | |||
| New Haven | CT | 2026-05-09 10:15 | ASOS | 55 | 48 | 77 | 29.91 | 8 | SE | |||
| New Haven | CT | 2026-05-09 10:05 | ASOS | 55 | 48 | 77 | 29.91 | 9 | ESE | |||
| New Haven | CT | 2026-05-09 09:53 | ASOS | 56 | 49 | 77 | 29.91 | 10 | SE | |||
| New Haven | CT | 2026-05-09 09:50 | ASOS | 55 | 48 | 77 | 29.90 | 10 | SE | |||
| New Haven | CT | 2026-05-09 09:40 | ASOS | 55 | 48 | 77 | 29.90 | 6 | ESE | |||
| New Haven | CT | 2026-05-09 22:53 | ASOS | 53 | 52 | 96 | 29.87 | 5 | ESE | |||
| New Haven | CT | 2026-05-10 01:38 | ASOS | 53 | 52 | 96 | 29.87 | 0 | N | |||
| New Haven | CT | 2026-05-09 09:15 | ASOS | 55 | 48 | 77 | 29.92 | 5 | E | |||
| New Haven | CT | 2026-05-10 03:10 | ASOS | 52 | 52 | 100 | 29.87 | 0 | N | |||
| New Haven | CT | 2026-05-10 03:55 | ASOS | 52 | 52 | 100 | 29.87 | 0 | N | |||
| New Haven | CT | 2026-05-10 03:53 | ASOS | 52 | 51 | 97 | 29.87 | 0 | N | |||
| New Haven | CT | 2026-05-10 03:50 | ASOS | 52 | 52 | 100 | 29.87 | 0 | N | |||
| New Haven | CT | 2026-05-10 03:45 | ASOS | 52 | 52 | 100 | 29.88 | 0 | N | |||
| New Haven | CT | 2026-05-10 03:40 | ASOS | 52 | 52 | 100 | 29.88 | 0 | N | |||
| New Haven | CT | 2026-05-10 03:35 | ASOS | 52 | 52 | 100 | 29.88 | 0 | N | |||
| New Haven | CT | 2026-05-10 03:30 | ASOS | 52 | 52 | 100 | 29.88 | 0 | N | |||
| New Haven | CT | 2026-05-10 03:25 | ASOS | 52 | 52 | 100 | 29.88 | 0 | N | |||
| New Haven | CT | 2026-05-10 03:20 | ASOS | 52 | 52 | 100 | 29.88 | 0 | N | |||
| New Haven | CT | 2026-05-10 03:15 | ASOS | 52 | 52 | 100 | 29.88 | 0 | N | |||
| New Haven | CT | 2026-05-10 03:05 | ASOS | 52 | 52 | 100 | 29.87 | 0 | N | |||
| New Haven | CT | 2026-05-10 01:53 | ASOS | 53 | 52 | 96 | 29.87 | 3 | SE | |||
| New Haven | CT | 2026-05-10 03:00 | ASOS | 52 | 52 | 100 | 29.88 | 0 | N | |||
| New Haven | CT | 2026-05-10 02:55 | ASOS | 52 | 52 | 100 | 29.88 | 0 | N | |||
| New Haven | CT | 2026-05-10 02:53 | ASOS | 52 | 51 | 97 | 29.87 | 0 | N | |||
| New Haven | CT | 2026-05-10 02:50 | ASOS | 52 | 52 | 100 | 29.87 | 0 | N | |||
| New Haven | CT | 2026-05-10 02:45 | ASOS | 52 | 52 | 100 | 29.87 | 0 | N | |||
| New Haven | CT | 2026-05-10 02:40 | ASOS | 52 | 52 | 100 | 29.87 | 0 | N | |||
| New Haven | CT | 2026-05-10 02:35 | ASOS | 52 | 51 | 97 | 29.87 | 3 | E | |||
| New Haven | CT | 2026-05-10 02:30 | ASOS | 52 | 52 | 100 | 29.87 | 3 | SSE | |||
| New Haven | CT | 2026-05-10 02:25 | ASOS | 54 | 52 | 94 | 29.87 | 3 | SSE | |||
| New Haven | CT | 2026-05-10 02:20 | ASOS | 54 | 52 | 94 | 29.87 | 0 | N | |||
| New Haven | CT | 2026-05-10 02:15 | ASOS | 54 | 52 | 94 | 29.86 | 3 | ESE | |||
| New Haven | CT | 2026-05-09 09:25 | ASOS | 55 | 48 | 77 | 29.92 | 3 | ESE | |||
| New Haven | CT | 2026-05-09 09:10 | ASOS | 55 | 48 | 77 | 29.92 | 6 | E | |||
| New Haven | CT | 2026-05-09 04:20 | ASOS | 52 | 46 | 82 | 29.92 | 5 | E | |||
| New Haven | CT | 2026-05-09 05:15 | ASOS | 52 | 46 | 82 | 29.92 | 3 | ENE | |||
| New Haven | CT | 2026-05-09 06:05 | ASOS | 52 | 46 | 82 | 29.92 | 5 | NNE | |||
| New Haven | CT | 2026-05-09 06:00 | ASOS | 50 | 46 | 87 | 29.92 | 5 | NE | |||
| New Haven | CT | 2026-05-09 05:53 | ASOS | 50 | 46 | 86 | 29.92 | 5 | ESE | |||
| New Haven | CT | 2026-05-09 05:50 | ASOS | 50 | 46 | 87 | 29.91 | 5 | ESE | |||
| New Haven | CT | 2026-05-09 05:45 | ASOS | 50 | 46 | 87 | 29.92 | 5 | ESE | |||
| New Haven | CT | 2026-05-09 05:40 | ASOS | 50 | 46 | 87 | 29.92 | 5 | ENE | |||
| New Haven | CT | 2026-05-09 05:35 | ASOS | 52 | 46 | 82 | 29.92 | 3 | ENE | |||
| New Haven | CT | 2026-05-09 05:30 | ASOS | 52 | 46 | 82 | 29.92 | 5 | NNE | |||
| New Haven | CT | 2026-05-09 05:25 | ASOS | 50 | 46 | 87 | 29.93 | 0 | N | |||
| New Haven | CT | 2026-05-09 05:20 | ASOS | 52 | 46 | 82 | 29.92 | 3 | E | |||
| New Haven | CT | 2026-05-09 05:10 | ASOS | 52 | 46 | 82 | 29.92 | 3 | ENE | |||
| New Haven | CT | 2026-05-09 06:15 | ASOS | 52 | 46 | 82 | 29.92 | 0 | N | |||
| New Haven | CT | 2026-05-09 05:05 | ASOS | 52 | 46 | 82 | 29.92 | 5 | NE | |||
| New Haven | CT | 2026-05-09 05:00 | ASOS | 52 | 46 | 82 | 29.92 | 5 | NE | |||
| New Haven | CT | 2026-05-09 04:55 | ASOS | 52 | 46 | 82 | 29.92 | 3 | ENE | |||
| New Haven | CT | 2026-05-09 04:53 | ASOS | 51 | 47 | 86 | 29.92 | 3 | ENE | |||
| New Haven | CT | 2026-05-09 04:50 | ASOS | 52 | 46 | 82 | 29.92 | 3 | ENE | |||
| New Haven | CT | 2026-05-09 04:45 | ASOS | 52 | 46 | 82 | 29.92 | 3 | ENE | |||
| New Haven | CT | 2026-05-09 04:40 | ASOS | 52 | 46 | 82 | 29.92 | 5 | E | |||
| New Haven | CT | 2026-05-09 04:35 | ASOS | 52 | 46 | 82 | 29.92 | 6 | E | |||
| New Haven | CT | 2026-05-09 04:30 | ASOS | 52 | 46 | 82 | 29.92 | 5 | E | |||
| New Haven | CT | 2026-05-09 04:25 | ASOS | 52 | 46 | 82 | 29.92 | 5 | E | |||
| New Haven | CT | 2026-05-09 06:10 | ASOS | 52 | 46 | 82 | 29.92 | 6 | NE | |||
| New Haven | CT | 2026-05-09 06:20 | ASOS | 50 | 46 | 87 | 29.93 | 3 | ENE | |||
| New Haven | CT | 2026-05-09 09:05 | ASOS | 54 | 48 | 82 | 29.92 | 7 | E | |||
| New Haven | CT | 2026-05-09 07:35 | ASOS | 52 | 46 | 82 | 29.94 | 3 | ENE | |||
| New Haven | CT | 2026-05-09 08:55 | ASOS | 54 | 48 | 82 | 29.93 | 8 | E | |||
| New Haven | CT | 2026-05-09 08:50 | ASOS | 54 | 48 | 82 | 29.93 | 7 | ESE | |||
| New Haven | CT | 2026-05-09 08:40 | ASOS | 54 | 48 | 82 | 29.94 | 3 | ESE | |||
| New Haven | CT | 2026-05-09 08:25 | ASOS | 54 | 48 | 82 | 29.93 | 9 | E | |||
| New Haven | CT | 2026-05-09 08:20 | ASOS | 54 | 48 | 82 | 29.93 | 6 | E | |||
| New Haven | CT | 2026-05-09 08:15 | ASOS | 54 | 48 | 82 | 29.93 | 5 | E | |||
| New Haven | CT | 2026-05-09 08:05 | ASOS | 54 | 46 | 77 | 29.93 | 6 | ENE | |||
| New Haven | CT | 2026-05-09 07:53 | ASOS | 52 | 47 | 83 | 29.94 | 5 | ESE | |||
| New Haven | CT | 2026-05-09 07:50 | ASOS | 52 | 46 | 82 | 29.94 | 5 | ESE | |||
| New Haven | CT | 2026-05-09 07:40 | ASOS | 52 | 46 | 82 | 29.94 | 3 | ENE | |||
| New Haven | CT | 2026-05-09 07:30 | ASOS | 52 | 46 | 82 | 29.94 | 3 | NE | |||
| New Haven | CT | 2026-05-09 06:25 | ASOS | 50 | 46 | 87 | 29.93 | 3 | NE | |||
| New Haven | CT | 2026-05-09 07:25 | ASOS | 52 | 46 | 82 | 29.94 | 3 | NNE | |||
| New Haven | CT | 2026-05-09 07:20 | ASOS | 52 | 46 | 82 | 29.94 | 5 | NNE | |||
| New Haven | CT | 2026-05-09 07:15 | ASOS | 52 | 46 | 82 | 29.93 | 5 | NNE | |||
| New Haven | CT | 2026-05-09 07:10 | ASOS | 52 | 46 | 82 | 29.93 | 5 | NNE | |||
| New Haven | CT | 2026-05-09 07:05 | ASOS | 52 | 46 | 82 | 29.93 | 5 | NE | |||
| New Haven | CT | 2026-05-09 07:00 | ASOS | 52 | 46 | 82 | 29.93 | 5 | NNE | |||
| New Haven | CT | 2026-05-09 06:50 | ASOS | 50 | 46 | 87 | 29.92 | 5 | NNE | |||
| New Haven | CT | 2026-05-09 06:45 | ASOS | 50 | 46 | 87 | 29.92 | 6 | NNE | |||
| New Haven | CT | 2026-05-09 06:40 | ASOS | 50 | 46 | 87 | 29.92 | 5 | NNE | |||
| New Haven | CT | 2026-05-09 06:35 | ASOS | 50 | 46 | 87 | 29.91 | 6 | ENE | |||
| New Haven | CT | 2026-05-09 06:30 | ASOS | 50 | 46 | 87 | 29.92 | 5 | E | |||
| New Haven | CT | 2026-05-10 04:00 | ASOS | 52 | 52 | 100 | 29.87 | 3 | ESE |
data collection created in 0.023446798324585 (queried in 0.011071) rendered in: 0.00014209747314453

